ADDS METAR Data INFO
IDs: Format: Raw Decoded Include TAF

Data at: 1144 UTC 17 Jul 2018

KMJQ 171135Z AUTO 00000KT 10SM CLR 16/14 A3012 RMK AO2
KMJQ 171115Z AUTO 01003KT 10SM CLR 16/13 A3012 RMK AO2
KMJQ 171055Z AUTO 00000KT 10SM CLR 15/13 A3012 RMK AO2
KMJQ 171035Z AUTO 00000KT 10SM CLR 16/13 A3012 RMK AO2
KMJQ 171015Z AUTO 00000KT 10SM CLR 16/13 A3012 RMK AO2
KMJQ 170955Z AUTO 00000KT 10SM CLR 15/14 A3011 RMK AO2
KMJQ 170935Z AUTO 00000KT 10SM CLR 16/14 A3010 RMK AO2
KMJQ 170915Z AUTO 00000KT 10SM CLR 16/14 A3011 RMK AO2
KMJQ 170855Z AUTO 00000KT 10SM CLR 16/14 A3011 RMK AO2
KMJQ 170835Z AUTO 00000KT 10SM CLR 16/14 A3011 RMK AO2
KMJQ 170815Z AUTO 00000KT 10SM CLR 15/14 A3011 RMK AO2
KMJQ 170755Z AUTO 00000KT 10SM CLR 15/14 A3010 RMK AO2
KMJQ 170736Z AUTO 00000KT 10SM CLR 16/14 A3011 RMK AO2
KMJQ 170715Z AUTO 00000KT 10SM CLR 17/14 A3010 RMK AO2
KMJQ 170655Z AUTO 00000KT 10SM CLR 17/14 A3010 RMK AO2
KMJQ 170635Z AUTO 00000KT 10SM CLR 17/15 A3011 RMK AO2
KMJQ 170615Z AUTO 00000KT 10SM CLR 16/14 A3011 RMK AO2
KMJQ 170555Z AUTO 00000KT 10SM CLR 16/15 A3011 RMK AO2
KMJQ 170535Z AUTO 00000KT 10SM CLR 16/15 A3011 RMK AO2
KMJQ 170515Z AUTO 00000KT 10SM CLR 17/15 A3011 RMK AO2
KMJQ 170455Z AUTO 00000KT 10SM CLR 17/15 A3010 RMK AO2
KMJQ 170435Z AUTO 00000KT 10SM CLR 17/16 A3011 RMK AO2
KMJQ 170415Z AUTO 00000KT 10SM CLR 18/15 A3010 RMK AO2
KMJQ 170355Z AUTO 00000KT 10SM CLR 17/15 A3010 RMK AO2
KMJQ 170335Z AUTO 00000KT 10SM CLR 18/16 A3010 RMK AO2
KMJQ 170315Z AUTO 00000KT 10SM SCT090 SCT120 18/16 A3010 RMK AO2
KMJQ 170255Z AUTO 00000KT 10SM CLR 19/16 A3010 RMK AO2
KMJQ 170235Z AUTO 00000KT 10SM CLR 19/17 A3009 RMK AO2
KMJQ 170215Z AUTO 00000KT 10SM CLR 21/16 A3008 RMK AO2
KMJQ 170155Z AUTO 00000KT 10SM CLR 21/17 A3008 RMK AO2
KMJQ 170135Z AUTO 00000KT 10SM CLR 22/16 A3007 RMK AO2
KMJQ 170115Z AUTO 00000KT 10SM CLR 25/16 A3006 RMK AO2
KMJQ 170056Z AUTO 00000KT 10SM SCT090 25/15 A3006 RMK AO2
KMJQ 170035Z AUTO 00000KT 10SM CLR 25/14 A3006 RMK AO2
KMJQ 170015Z AUTO 00000KT 10SM CLR 26/13 A3007 RMK AO2
KMJQ 162355Z AUTO 32004KT 10SM SCT090 SCT110 26/12 A3007 RMK AO2
KMJQ 162335Z AUTO 32004KT 10SM SCT100 26/13 A3008 RMK AO2
KMJQ 162315Z AUTO 28004KT 10SM CLR 26/12 A3008 RMK AO2
KMJQ 162255Z AUTO 29004KT 10SM CLR 27/12 A3008 RMK AO2
KMJQ 162235Z AUTO 28004KT 10SM CLR 27/10 A3008 RMK AO2
KMJQ 162215Z AUTO 28003KT 10SM CLR 27/11 A3009 RMK AO2
KMJQ 162155Z AUTO 27003KT 10SM CLR 27/11 A3009 RMK AO2
KMJQ 162135Z AUTO 26003KT 10SM CLR 27/10 A3010 RMK AO2
KMJQ 162115Z AUTO 25004KT 10SM CLR 27/12 A3010 RMK AO2
KMJQ 162055Z AUTO 27003KT 10SM CLR 27/11 A3010 RMK AO2
KMJQ 162035Z AUTO 27004KT 10SM CLR 27/11 A3010 RMK AO2
KMJQ 162016Z AUTO 26003KT 10SM CLR 26/09 A3010 RMK AO2
KMJQ 161955Z AUTO 00000KT 10SM CLR 26/09 A3011 RMK AO2
KMJQ 161935Z AUTO 00000KT 10SM CLR 26/11 A3011 RMK AO2
KMJQ 161915Z AUTO 31003KT 10SM SCT120 26/10 A3011 RMK AO2
KMJQ 161855Z AUTO 00000KT 10SM CLR 26/10 A3012 RMK AO2
KMJQ 161835Z AUTO 04005KT 10SM CLR 26/11 A3011 RMK AO2
KMJQ 161815Z AUTO 00000KT 10SM CLR 25/11 A3012 RMK AO2
KMJQ 161755Z AUTO 00000KT 10SM CLR 25/10 A3012 RMK AO2
KMJQ 161735Z AUTO 08004KT 7SM CLR 25/11 A3012 RMK AO2
KMJQ 161715Z AUTO 00000KT 10SM CLR 25/10 A3012 RMK AO2
KMJQ 161655Z AUTO 00000KT 10SM CLR 24/10 A3012 RMK AO2
KMJQ 161635Z AUTO 03003KT 10SM CLR 24/10 A3012 RMK AO2
KMJQ 161615Z AUTO 00000KT 10SM CLR 23/12 A3012 RMK AO2
KMJQ 161555Z AUTO 04004KT 10SM CLR 23/12 A3013 RMK AO2
KMJQ 161535Z AUTO 00000KT 10SM CLR 23/12 A3012 RMK AO2
KMJQ 161515Z AUTO 00000KT 10SM CLR 22/13 A3012 RMK AO2
KMJQ 161455Z AUTO 33003KT 10SM CLR 22/14 A3012 RMK AO2
KMJQ 161435Z AUTO 00000KT 10SM CLR 21/15 A3012 RMK AO2
KMJQ 161415Z AUTO 32005KT 10SM CLR 21/15 A3012 RMK AO2
KMJQ 161355Z AUTO 32003KT 10SM CLR 20/15 A3012 RMK AO2
KMJQ 161335Z AUTO 33003KT 10SM CLR 20/15 A3011 RMK AO2
KMJQ 161315Z AUTO 32004KT 10SM CLR 18/15 A3011 RMK AO2
KMJQ 161255Z AUTO 33004KT 10SM CLR 18/15 A3011 RMK AO2
KMJQ 161235Z AUTO 33004KT 10SM CLR 17/15 A3011 RMK AO2
KMJQ 161216Z AUTO 32004KT 10SM CLR 16/15 A3011 RMK AO2
KMJQ 161155Z AUTO 32003KT 10SM CLR 15/14 A3010 RMK AO2
KMJQ 161135Z AUTO 00000KT 10SM CLR 15/13 A3009 RMK AO2
KMJQ 161115Z AUTO 29003KT 10SM CLR 15/13 A3010 RMK AO2
KMJQ 161055Z AUTO 00000KT 10SM CLR 14/13 A3009 RMK AO2
KMJQ 161035Z AUTO 00000KT 10SM CLR 15/13 A3009 RMK AO2
KMJQ 161015Z AUTO 00000KT 10SM CLR 15/13 A3009 RMK AO2
KMJQ 160955Z AUTO 00000KT 10SM CLR 15/13 A3009 RMK AO2
KMJQ 160935Z AUTO 31003KT 10SM SCT120 16/14 A3009 RMK AO2
KMJQ 160915Z AUTO 33004KT 10SM SCT120 16/14 A3009 RMK AO2
KMJQ 160855Z AUTO 00000KT 10SM SCT110 16/14 A3009 RMK AO2
KMJQ 160835Z AUTO 35003KT 10SM BKN110 17/14 A3009 RMK AO2
KMJQ 160815Z AUTO 34003KT 10SM BKN120 17/14 A3009 RMK AO2
KMJQ 160755Z AUTO 33005KT 10SM SCT120 17/14 A3009 RMK AO2
KMJQ 160736Z AUTO 33005KT 10SM SCT120 17/14 A3008 RMK AO2
KMJQ 160715Z AUTO 33004KT 10SM CLR 18/15 A3008 RMK AO2
KMJQ 160655Z AUTO 00000KT 10SM CLR 18/15 A3008 RMK AO2
KMJQ 160635Z AUTO 00000KT 10SM CLR 18/15 A3008 RMK AO2
KMJQ 160615Z AUTO 35003KT 10SM CLR 18/15 A3008 RMK AO2
KMJQ 160555Z AUTO 33006KT 10SM CLR 18/15 A3008 RMK AO2
KMJQ 160535Z AUTO 33007KT 10SM CLR 18/15 A3008 RMK AO2
KMJQ 160515Z AUTO 33005KT 10SM CLR 18/15 A3008 RMK AO2
KMJQ 160455Z AUTO 33007KT 10SM CLR 18/15 A3008 RMK AO2
KMJQ 160435Z AUTO 33007KT 10SM CLR 19/15 A3008 RMK AO2
KMJQ 160415Z AUTO 34004KT 10SM CLR 19/15 A3007 RMK AO2
KMJQ 160355Z AUTO 33006KT 10SM CLR 19/16 A3007 RMK AO2
KMJQ 160335Z AUTO 34005KT 10SM CLR 19/16 A3007 RMK AO2
KMJQ 160315Z AUTO 31005KT 10SM CLR 19/16 A3007 RMK AO2
KMJQ 160255Z AUTO 35003KT 10SM CLR 20/16 A3005 RMK AO2
KMJQ 160235Z AUTO 00003KT 10SM CLR 20/17 A3005 RMK AO2
KMJQ 160215Z AUTO 35005KT 10SM CLR 21/17 A3006 RMK AO2
KMJQ 160155Z AUTO 34007G16KT 10SM CLR 21/17 A3005 RMK AO2
KMJQ 160135Z AUTO 33007KT 10SM CLR 22/17 A3004 RMK AO2
KMJQ 160115Z AUTO 35007KT 10SM CLR 22/18 A3003 RMK AO2
KMJQ 160055Z AUTO 34006KT 10SM SCT060 23/18 A3003 RMK AO2
KMJQ 160035Z AUTO 35007KT 10SM SCT060 23/19 A3003 RMK AO2
KMJQ 160015Z AUTO 34004KT 10SM SCT070 23/19 A3003 RMK AO2
KMJQ 152355Z AUTO 34006KT 10SM BKN070 23/19 A3003 RMK AO2